createdAt,value
2019-05-07T00:01:46.099Z,5.37
2019-05-07T00:06:43.467Z,5.44
2019-05-07T00:11:42.463Z,5.26
2019-05-07T00:16:37.555Z,5.27
2019-05-07T00:21:33.430Z,5.10
2019-05-07T00:26:29.363Z,4.87
2019-05-07T00:31:25.142Z,5.02
2019-05-07T00:36:34.038Z,4.76
2019-05-07T00:41:38.961Z,4.70
2019-05-07T00:46:34.945Z,4.69
2019-05-07T00:51:33.319Z,4.69
2019-05-07T00:56:29.540Z,4.43
2019-05-07T01:01:25.365Z,4.20
2019-05-07T01:06:22.721Z,4.09
2019-05-07T01:11:18.649Z,4.06
2019-05-07T01:16:14.912Z,3.76
2019-05-07T01:21:10.624Z,4.09
2019-05-07T01:26:06.585Z,4.01
2019-05-07T01:31:02.349Z,4.04
2019-05-07T01:36:19.951Z,4.11
2019-05-07T01:41:15.753Z,4.02
2019-05-07T01:46:12.401Z,3.99
2019-05-07T01:51:08.408Z,3.98
2019-05-07T01:56:04.256Z,3.93
2019-05-07T02:01:00.050Z,3.70
2019-05-07T02:06:13.169Z,3.68
2019-05-07T02:11:12.759Z,3.83
2019-05-07T02:16:08.074Z,3.73
2019-05-07T02:21:03.829Z,3.55
2019-05-07T02:25:59.733Z,3.57
2019-05-07T02:30:55.461Z,3.67
2019-05-07T02:35:53.435Z,3.56
2019-05-07T02:40:56.418Z,3.50
2019-05-07T02:46:25.039Z,3.29
2019-05-07T02:51:15.813Z,3.20
2019-05-07T02:56:12.971Z,3.29
2019-05-07T03:01:13.439Z,3.34
2019-05-07T03:06:07.559Z,3.30
2019-05-07T03:11:03.731Z,3.33
2019-05-07T03:16:03.758Z,3.13
2019-05-07T03:21:06.591Z,3.22
2019-05-07T03:26:13.667Z,3.09
2019-05-07T03:31:17.168Z,2.93
2019-05-07T03:36:16.562Z,2.98
2019-05-07T03:41:12.831Z,3.00
2019-05-07T03:46:14.176Z,2.80
2019-05-07T03:51:09.499Z,2.60
2019-05-07T03:56:05.418Z,2.98
2019-05-07T04:01:04.367Z,2.89
2019-05-07T04:05:58.957Z,2.92
2019-05-07T04:10:54.811Z,2.99
2019-05-07T04:15:52.578Z,2.90
2019-05-07T04:20:48.225Z,2.91
2019-05-07T04:26:07.020Z,2.89
2019-05-07T04:31:03.527Z,3.10
2019-05-07T04:36:14.393Z,3.27
2019-05-07T04:41:10.279Z,3.27
2019-05-07T04:46:06.069Z,3.91
2019-05-07T04:51:03.750Z,4.38
2019-05-07T04:55:59.629Z,4.62
2019-05-07T05:00:55.429Z,5.20
2019-05-07T05:05:53.177Z,5.11
2019-05-07T05:10:48.767Z,5.13
2019-05-07T05:15:44.650Z,5.05
2019-05-07T05:20:59.391Z,4.89
2019-05-07T05:25:55.300Z,5.06
2019-05-07T05:30:55.846Z,5.06
2019-05-07T05:35:52.784Z,5.22
2019-05-07T05:40:48.514Z,5.37
2019-05-07T05:45:45.325Z,5.48
2019-05-07T05:50:48.499Z,5.58
2019-05-07T05:55:45.198Z,5.82
2019-05-07T06:01:06.003Z,6.03
2019-05-07T06:06:14.677Z,5.96
2019-05-07T06:11:33.682Z,6.01
2019-05-07T06:16:36.587Z,6.16
2019-05-07T06:21:52.464Z,6.29
2019-05-07T06:26:47.504Z,6.39
2019-05-07T06:31:45.032Z,6.55
2019-05-07T06:36:42.416Z,6.71
2019-05-07T06:42:06.089Z,7.04
2019-05-07T06:47:02.530Z,7.26
2019-05-07T06:51:58.381Z,7.35
2019-05-07T06:56:54.377Z,7.59
2019-05-07T07:02:05.704Z,7.88
2019-05-07T07:07:27.207Z,8.13
2019-05-07T07:12:24.063Z,8.59
2019-05-07T07:17:18.237Z,8.90
2019-05-07T07:22:14.025Z,9.37
2019-05-07T07:27:09.930Z,9.50
2019-05-07T07:32:07.145Z,10.05
2019-05-07T07:37:10.881Z,10.45
2019-05-07T07:42:07.675Z,10.61
2019-05-07T07:47:03.706Z,10.66
2019-05-07T07:51:59.655Z,10.25
2019-05-07T07:57:12.486Z,10.28
2019-05-07T08:02:16.727Z,10.95
2019-05-07T08:07:12.636Z,11.13
2019-05-07T08:12:08.672Z,11.47
2019-05-07T08:17:06.898Z,11.47
2019-05-07T08:22:03.144Z,11.80
2019-05-07T08:26:58.928Z,11.99
2019-05-07T08:32:26.041Z,11.98
2019-05-07T08:37:24.205Z,12.35
2019-05-07T08:42:19.280Z,12.62
2019-05-07T08:47:23.947Z,12.91
2019-05-07T08:52:19.724Z,13.27
2019-05-07T08:57:15.644Z,13.46
2019-05-07T09:02:12.597Z,13.48
2019-05-07T09:07:08.555Z,13.43
2019-05-07T09:12:04.551Z,13.79
2019-05-07T09:17:02.448Z,14.20
2019-05-07T09:21:57.736Z,14.11
2019-05-07T09:27:06.381Z,14.21
2019-05-07T09:32:32.483Z,14.35
2019-05-07T09:37:28.880Z,14.45
2019-05-07T09:42:24.775Z,14.21
2019-05-07T09:47:21.904Z,14.54
2019-05-07T09:52:17.859Z,14.75
2019-05-07T09:57:27.219Z,14.21
2019-05-07T10:02:12.298Z,13.92
2019-05-07T10:07:09.189Z,14.07
2019-05-07T10:12:23.859Z,14.33
2019-05-07T10:17:29.715Z,14.21
2019-05-07T10:22:25.470Z,14.39
2019-05-07T10:27:21.886Z,14.05
2019-05-07T10:32:18.157Z,14.02
2019-05-07T10:37:13.950Z,13.95
2019-05-07T10:42:09.841Z,14.11
2019-05-07T10:47:42.755Z,13.83
2019-05-07T10:52:38.538Z,14.45
2019-05-07T10:57:34.265Z,15.35
2019-05-07T11:02:32.496Z,15.23
2019-05-07T11:07:28.223Z,14.69
2019-05-07T11:12:23.980Z,14.78
2019-05-07T11:17:28.498Z,14.70
2019-05-07T11:22:24.350Z,14.57
2019-05-07T11:27:22.427Z,14.52
2019-05-07T11:32:17.751Z,14.63
2019-05-07T11:37:13.658Z,14.99
2019-05-07T11:42:28.447Z,15.29
2019-05-07T11:47:31.874Z,15.42
2019-05-07T11:52:35.598Z,15.31
2019-05-07T11:57:29.983Z,14.91
2019-05-07T12:02:25.818Z,14.84
2019-05-07T12:07:22.314Z,15.16
2019-05-07T12:12:18.219Z,15.27
2019-05-07T12:17:13.965Z,15.38
2019-05-07T12:22:11.982Z,14.86
2019-05-07T12:27:07.481Z,14.56
2019-05-07T12:32:32.370Z,14.71
2019-05-07T12:37:28.207Z,14.91
2019-05-07T12:42:24.022Z,14.70
2019-05-07T12:47:19.777Z,14.73
2019-05-07T12:52:34.462Z,14.74
2019-05-07T12:57:30.230Z,15.08
2019-05-07T13:02:52.129Z,15.22
2019-05-07T13:07:55.511Z,14.93
2019-05-07T13:12:52.608Z,15.05
2019-05-07T13:17:48.551Z,14.75
2019-05-07T13:22:44.287Z,14.82
2019-05-07T13:27:40.323Z,14.74
2019-05-07T13:32:38.865Z,14.80
2019-05-07T13:37:36.900Z,14.65
2019-05-07T13:42:44.170Z,14.65
2019-05-07T13:47:42.295Z,14.68
2019-05-07T13:52:38.256Z,14.65
2019-05-07T13:58:22.940Z,14.90
2019-05-07T14:04:08.259Z,14.88
2019-05-07T14:09:47.552Z,14.31
2019-05-07T14:15:03.761Z,14.45
2019-05-07T14:20:49.083Z,14.54
2019-05-07T14:26:17.535Z,14.46
2019-05-07T14:32:24.554Z,14.31
2019-05-07T14:38:04.467Z,14.25
2019-05-07T14:43:52.643Z,14.41
2019-05-07T14:49:03.235Z,14.47
2019-05-07T14:54:18.443Z,14.48
2019-05-07T14:59:53.230Z,14.63
2019-05-07T15:05:30.096Z,14.63
2019-05-07T15:10:41.718Z,14.56
2019-05-07T15:21:43.026Z,14.56
2019-05-07T15:27:00.417Z,14.56
2019-05-07T15:32:18.754Z,14.66
2019-05-07T15:43:52.116Z,14.85
2019-05-07T15:49:46.834Z,14.76
2019-05-07T15:54:52.311Z,14.51
2019-05-07T16:00:38.218Z,14.88
2019-05-07T17:55:12.944Z,13.20
2019-05-07T18:00:08.338Z,13.12
2019-05-07T18:05:04.153Z,12.97
2019-05-07T18:10:02.259Z,12.87
2019-05-07T18:14:57.756Z,12.85
2019-05-07T18:19:53.749Z,12.76
2019-05-07T18:24:49.821Z,12.67
2019-05-07T18:29:45.840Z,12.55
2019-05-07T18:34:42.785Z,12.42
2019-05-07T18:39:38.848Z,12.21
2019-05-07T18:44:34.751Z,12.09
2019-05-07T18:49:30.651Z,12.05
2019-05-07T18:54:30.876Z,11.91
2019-05-07T18:59:26.619Z,11.79
2019-05-07T19:04:22.845Z,11.68
2019-05-07T19:09:18.838Z,11.58
2019-05-07T19:14:14.678Z,11.44
2019-05-07T19:19:12.409Z,11.08
2019-05-07T19:24:08.174Z,11.12
2019-05-07T19:29:04.107Z,11.31
2019-05-07T19:34:00.281Z,11.42
2019-05-07T19:38:56.679Z,11.39
2019-05-07T19:43:52.871Z,11.33
2019-05-07T19:48:48.740Z,11.32
2019-05-07T19:53:44.626Z,11.29
2019-05-07T19:58:41.915Z,11.31
2019-05-07T20:03:38.032Z,11.36
2019-05-07T20:08:33.871Z,11.31
2019-05-07T20:13:31.905Z,11.30
2019-05-07T20:18:27.481Z,11.30
2019-05-07T20:23:23.288Z,11.17
2019-05-07T20:28:19.318Z,11.24
2019-05-07T20:33:15.534Z,11.31
2019-05-07T20:38:11.449Z,11.21
2019-05-07T20:43:07.241Z,10.93
2019-05-07T20:48:04.003Z,11.14
2019-05-07T20:53:01.899Z,11.08
2019-05-07T20:57:58.369Z,11.05
2019-05-07T21:03:12.557Z,11.15
2019-05-07T21:08:08.624Z,10.95
2019-05-07T21:13:04.527Z,11.11
2019-05-07T21:18:00.356Z,11.14
2019-05-07T21:22:57.226Z,11.16
2019-05-07T21:27:53.207Z,11.11
2019-05-07T21:32:49.279Z,11.09
2019-05-07T21:37:45.292Z,10.89
2019-05-07T21:42:42.586Z,10.64
2019-05-07T21:47:39.155Z,10.80
2019-05-07T21:52:39.463Z,10.82
2019-05-07T21:57:55.369Z,10.61
2019-05-07T22:02:52.673Z,10.54
2019-05-07T22:07:48.638Z,10.53
2019-05-07T22:12:44.649Z,10.69
2019-05-07T22:17:44.207Z,10.75
2019-05-07T22:22:37.937Z,10.70
2019-05-07T22:27:33.679Z,10.70
2019-05-07T22:32:46.106Z,10.70
2019-05-07T22:37:41.933Z,10.69
2019-05-07T22:42:37.880Z,10.57
2019-05-07T22:47:33.595Z,10.35
2019-05-07T22:52:29.417Z,10.33
2019-05-07T22:57:44.251Z,10.31
2019-05-07T23:02:42.645Z,10.19
2019-05-07T23:07:37.723Z,10.29
2019-05-07T23:12:33.606Z,10.05
2019-05-07T23:17:32.558Z,9.80
2019-05-07T23:22:27.883Z,9.71
2019-05-07T23:27:23.781Z,9.60
2019-05-07T23:32:19.526Z,9.35
2019-05-07T23:37:15.310Z,9.65
2019-05-07T23:42:18.262Z,9.47
2019-05-07T23:47:14.021Z,9.23
2019-05-07T23:52:09.759Z,9.04
2019-05-07T23:57:09.506Z,9.01
